sensor_id;sensor_type;location;lat;lon;timestamp;P1;durP1;ratioP1;P2;durP2;ratioP2
74851;SDS011;63400;50.650;6.832;2024-01-30T00:00:53;10.65;;;3.72;;
74851;SDS011;63400;50.650;6.832;2024-01-30T00:03:19;8.52;;;2.92;;
74851;SDS011;63400;50.650;6.832;2024-01-30T00:05:44;9.23;;;3.08;;
74851;SDS011;63400;50.650;6.832;2024-01-30T00:08:10;9.38;;;3.47;;
74851;SDS011;63400;50.650;6.832;2024-01-30T00:10:35;9.10;;;3.40;;
74851;SDS011;63400;50.650;6.832;2024-01-30T00:13:01;8.45;;;3.33;;
74851;SDS011;63400;50.650;6.832;2024-01-30T00:15:27;8.73;;;2.95;;
74851;SDS011;63400;50.650;6.832;2024-01-30T00:17:53;8.40;;;3.28;;
74851;SDS011;63400;50.650;6.832;2024-01-30T00:20:18;7.72;;;3.25;;
74851;SDS011;63400;50.650;6.832;2024-01-30T00:22:44;9.13;;;3.13;;
74851;SDS011;63400;50.650;6.832;2024-01-30T00:25:09;10.10;;;3.22;;
74851;SDS011;63400;50.650;6.832;2024-01-30T00:27:35;7.90;;;3.08;;
74851;SDS011;63400;50.650;6.832;2024-01-30T00:30:00;9.77;;;3.55;;
74851;SDS011;63400;50.650;6.832;2024-01-30T00:32:26;9.48;;;3.45;;
74851;SDS011;63400;50.650;6.832;2024-01-30T00:34:51;6.50;;;2.72;;
74851;SDS011;63400;50.650;6.832;2024-01-30T00:37:16;6.10;;;2.80;;
74851;SDS011;63400;50.650;6.832;2024-01-30T00:39:42;7.95;;;2.75;;
74851;SDS011;63400;50.650;6.832;2024-01-30T00:42:07;10.45;;;2.67;;
74851;SDS011;63400;50.650;6.832;2024-01-30T00:44:34;11.40;;;3.55;;
74851;SDS011;63400;50.650;6.832;2024-01-30T00:47:02;10.85;;;3.03;;
74851;SDS011;63400;50.650;6.832;2024-01-30T00:49:28;8.70;;;2.88;;
74851;SDS011;63400;50.650;6.832;2024-01-30T00:51:53;8.00;;;3.00;;
74851;SDS011;63400;50.650;6.832;2024-01-30T00:54:19;9.07;;;3.38;;
74851;SDS011;63400;50.650;6.832;2024-01-30T00:56:44;8.27;;;2.97;;
74851;SDS011;63400;50.650;6.832;2024-01-30T00:59:10;7.13;;;3.25;;
74851;SDS011;63400;50.650;6.832;2024-01-30T01:01:36;8.80;;;2.92;;
74851;SDS011;63400;50.650;6.832;2024-01-30T01:04:01;7.55;;;2.78;;
74851;SDS011;63400;50.650;6.832;2024-01-30T01:06:27;9.13;;;3.25;;
74851;SDS011;63400;50.650;6.832;2024-01-30T01:08:52;8.02;;;3.55;;
74851;SDS011;63400;50.650;6.832;2024-01-30T01:11:18;9.10;;;3.10;;
74851;SDS011;63400;50.650;6.832;2024-01-30T01:13:43;8.30;;;2.80;;
74851;SDS011;63400;50.650;6.832;2024-01-30T01:16:09;10.00;;;2.90;;
74851;SDS011;63400;50.650;6.832;2024-01-30T01:18:34;8.65;;;3.38;;
74851;SDS011;63400;50.650;6.832;2024-01-30T01:20:59;10.88;;;2.95;;
74851;SDS011;63400;50.650;6.832;2024-01-30T01:23:25;7.20;;;2.78;;
74851;SDS011;63400;50.650;6.832;2024-01-30T01:25:51;11.05;;;3.13;;
74851;SDS011;63400;50.650;6.832;2024-01-30T01:28:16;10.32;;;2.90;;
74851;SDS011;63400;50.650;6.832;2024-01-30T01:30:42;7.70;;;2.70;;
74851;SDS011;63400;50.650;6.832;2024-01-30T01:33:07;7.05;;;2.65;;
74851;SDS011;63400;50.650;6.832;2024-01-30T01:35:34;9.95;;;3.53;;
74851;SDS011;63400;50.650;6.832;2024-01-30T01:37:59;9.48;;;2.95;;
74851;SDS011;63400;50.650;6.832;2024-01-30T01:40:28;8.25;;;3.10;;
74851;SDS011;63400;50.650;6.832;2024-01-30T01:42:55;8.45;;;3.28;;
74851;SDS011;63400;50.650;6.832;2024-01-30T01:45:20;10.13;;;3.10;;
74851;SDS011;63400;50.650;6.832;2024-01-30T01:47:47;7.97;;;3.22;;
74851;SDS011;63400;50.650;6.832;2024-01-30T01:50:15;6.70;;;3.00;;
74851;SDS011;63400;50.650;6.832;2024-01-30T01:52:43;8.23;;;2.83;;
74851;SDS011;63400;50.650;6.832;2024-01-30T01:55:09;7.75;;;3.00;;
74851;SDS011;63400;50.650;6.832;2024-01-30T01:57:35;8.20;;;3.00;;
74851;SDS011;63400;50.650;6.832;2024-01-30T02:00:01;6.15;;;2.83;;
74851;SDS011;63400;50.650;6.832;2024-01-30T02:02:28;10.05;;;2.83;;
74851;SDS011;63400;50.650;6.832;2024-01-30T02:04:56;11.02;;;2.90;;
74851;SDS011;63400;50.650;6.832;2024-01-30T02:07:22;13.10;;;3.75;;
74851;SDS011;63400;50.650;6.832;2024-01-30T02:09:47;7.90;;;2.88;;
74851;SDS011;63400;50.650;6.832;2024-01-30T02:12:14;9.77;;;3.35;;
74851;SDS011;63400;50.650;6.832;2024-01-30T02:14:48;9.13;;;3.13;;
74851;SDS011;63400;50.650;6.832;2024-01-30T02:17:15;9.40;;;3.13;;
74851;SDS011;63400;50.650;6.832;2024-01-30T02:19:41;9.07;;;3.13;;
74851;SDS011;63400;50.650;6.832;2024-01-30T02:22:06;8.75;;;3.38;;
74851;SDS011;63400;50.650;6.832;2024-01-30T02:24:32;6.85;;;2.83;;
74851;SDS011;63400;50.650;6.832;2024-01-30T02:26:58;9.38;;;2.67;;
74851;SDS011;63400;50.650;6.832;2024-01-30T02:29:23;8.43;;;3.33;;
74851;SDS011;63400;50.650;6.832;2024-01-30T02:31:48;8.50;;;2.95;;
74851;SDS011;63400;50.650;6.832;2024-01-30T02:34:14;6.10;;;2.83;;
74851;SDS011;63400;50.650;6.832;2024-01-30T02:36:43;9.10;;;3.47;;
74851;SDS011;63400;50.650;6.832;2024-01-30T02:39:08;8.48;;;3.08;;
74851;SDS011;63400;50.650;6.832;2024-01-30T02:41:34;11.05;;;2.95;;
74851;SDS011;63400;50.650;6.832;2024-01-30T02:44:00;8.70;;;3.53;;
74851;SDS011;63400;50.650;6.832;2024-01-30T02:46:26;8.90;;;3.03;;
74851;SDS011;63400;50.650;6.832;2024-01-30T02:48:51;11.30;;;3.13;;
74851;SDS011;63400;50.650;6.832;2024-01-30T02:51:17;8.10;;;3.10;;
74851;SDS011;63400;50.650;6.832;2024-01-30T02:53:42;9.25;;;3.53;;
74851;SDS011;63400;50.650;6.832;2024-01-30T02:56:07;8.77;;;2.90;;
74851;SDS011;63400;50.650;6.832;2024-01-30T02:58:35;9.55;;;3.53;;
74851;SDS011;63400;50.650;6.832;2024-01-30T03:01:01;8.88;;;3.55;;
74851;SDS011;63400;50.650;6.832;2024-01-30T03:03:27;8.80;;;3.15;;
74851;SDS011;63400;50.650;6.832;2024-01-30T03:05:52;10.85;;;3.22;;
74851;SDS011;63400;50.650;6.832;2024-01-30T03:08:18;9.27;;;3.20;;
74851;SDS011;63400;50.650;6.832;2024-01-30T03:10:43;8.23;;;2.63;;
74851;SDS011;63400;50.650;6.832;2024-01-30T03:13:09;6.55;;;2.63;;
74851;SDS011;63400;50.650;6.832;2024-01-30T03:15:34;9.60;;;3.55;;
74851;SDS011;63400;50.650;6.832;2024-01-30T03:17:59;9.23;;;3.42;;
74851;SDS011;63400;50.650;6.832;2024-01-30T03:20:25;6.47;;;2.63;;
74851;SDS011;63400;50.650;6.832;2024-01-30T03:22:50;10.57;;;2.92;;
74851;SDS011;63400;50.650;6.832;2024-01-30T03:25:15;9.02;;;2.85;;
74851;SDS011;63400;50.650;6.832;2024-01-30T03:27:41;8.30;;;2.95;;
74851;SDS011;63400;50.650;6.832;2024-01-30T03:30:06;7.50;;;3.17;;
74851;SDS011;63400;50.650;6.832;2024-01-30T03:32:32;7.28;;;2.88;;
74851;SDS011;63400;50.650;6.832;2024-01-30T03:34:58;8.10;;;3.40;;
74851;SDS011;63400;50.650;6.832;2024-01-30T03:37:24;8.73;;;3.33;;
74851;SDS011;63400;50.650;6.832;2024-01-30T03:39:49;7.88;;;2.67;;
74851;SDS011;63400;50.650;6.832;2024-01-30T03:42:15;9.15;;;3.40;;
74851;SDS011;63400;50.650;6.832;2024-01-30T03:44:40;10.13;;;3.58;;
74851;SDS011;63400;50.650;6.832;2024-01-30T03:47:06;8.77;;;3.30;;
74851;SDS011;63400;50.650;6.832;2024-01-30T03:49:31;7.75;;;3.22;;
74851;SDS011;63400;50.650;6.832;2024-01-30T03:51:56;9.98;;;3.38;;
74851;SDS011;63400;50.650;6.832;2024-01-30T03:54:22;10.18;;;3.78;;
74851;SDS011;63400;50.650;6.832;2024-01-30T03:56:47;8.95;;;3.15;;
74851;SDS011;63400;50.650;6.832;2024-01-30T03:59:13;7.28;;;3.40;;
74851;SDS011;63400;50.650;6.832;2024-01-30T04:01:38;9.90;;;2.95;;
74851;SDS011;63400;50.650;6.832;2024-01-30T04:04:03;8.65;;;3.45;;
74851;SDS011;63400;50.650;6.832;2024-01-30T04:06:29;10.60;;;3.45;;
74851;SDS011;63400;50.650;6.832;2024-01-30T04:08:54;7.15;;;2.78;;
74851;SDS011;63400;50.650;6.832;2024-01-30T04:11:20;7.15;;;2.97;;
74851;SDS011;63400;50.650;6.832;2024-01-30T04:13:45;8.77;;;2.42;;
74851;SDS011;63400;50.650;6.832;2024-01-30T04:18:47;8.00;;;2.88;;
74851;SDS011;63400;50.650;6.832;2024-01-30T04:21:13;8.70;;;3.03;;
74851;SDS011;63400;50.650;6.832;2024-01-30T04:23:39;9.38;;;3.17;;
74851;SDS011;63400;50.650;6.832;2024-01-30T04:26:05;8.35;;;3.05;;
74851;SDS011;63400;50.650;6.832;2024-01-30T04:28:31;7.93;;;3.28;;
74851;SDS011;63400;50.650;6.832;2024-01-30T04:30:56;7.90;;;2.55;;
74851;SDS011;63400;50.650;6.832;2024-01-30T04:33:21;6.50;;;2.95;;
74851;SDS011;63400;50.650;6.832;2024-01-30T04:35:47;7.68;;;2.85;;
74851;SDS011;63400;50.650;6.832;2024-01-30T04:38:12;9.52;;;2.88;;
74851;SDS011;63400;50.650;6.832;2024-01-30T04:40:39;8.10;;;2.60;;
74851;SDS011;63400;50.650;6.832;2024-01-30T04:43:05;7.20;;;2.78;;
74851;SDS011;63400;50.650;6.832;2024-01-30T04:45:30;7.28;;;3.00;;
74851;SDS011;63400;50.650;6.832;2024-01-30T04:47:56;8.57;;;3.63;;
74851;SDS011;63400;50.650;6.832;2024-01-30T04:50:21;8.20;;;2.60;;
74851;SDS011;63400;50.650;6.832;2024-01-30T04:52:46;8.70;;;2.67;;
74851;SDS011;63400;50.650;6.832;2024-01-30T04:55:12;7.72;;;2.63;;
74851;SDS011;63400;50.650;6.832;2024-01-30T04:57:37;7.45;;;2.22;;
74851;SDS011;63400;50.650;6.832;2024-01-30T05:00:03;7.47;;;2.65;;
74851;SDS011;63400;50.650;6.832;2024-01-30T05:02:28;8.15;;;2.97;;
74851;SDS011;63400;50.650;6.832;2024-01-30T05:04:54;7.88;;;2.75;;
74851;SDS011;63400;50.650;6.832;2024-01-30T05:07:19;16.23;;;3.70;;
74851;SDS011;63400;50.650;6.832;2024-01-30T05:09:45;8.93;;;2.92;;
74851;SDS011;63400;50.650;6.832;2024-01-30T05:12:10;6.30;;;2.53;;
74851;SDS011;63400;50.650;6.832;2024-01-30T05:14:36;7.95;;;2.55;;
74851;SDS011;63400;50.650;6.832;2024-01-30T05:17:01;8.18;;;3.13;;
74851;SDS011;63400;50.650;6.832;2024-01-30T05:19:28;10.20;;;3.13;;
74851;SDS011;63400;50.650;6.832;2024-01-30T05:21:53;8.38;;;2.88;;
74851;SDS011;63400;50.650;6.832;2024-01-30T05:24:19;11.02;;;3.80;;
74851;SDS011;63400;50.650;6.832;2024-01-30T05:26:44;9.68;;;4.03;;
74851;SDS011;63400;50.650;6.832;2024-01-30T05:29:10;6.78;;;2.72;;
74851;SDS011;63400;50.650;6.832;2024-01-30T05:31:35;9.77;;;2.88;;
74851;SDS011;63400;50.650;6.832;2024-01-30T05:34:01;10.10;;;3.17;;
74851;SDS011;63400;50.650;6.832;2024-01-30T05:36:26;9.43;;;3.40;;
74851;SDS011;63400;50.650;6.832;2024-01-30T05:38:52;9.02;;;3.50;;
74851;SDS011;63400;50.650;6.832;2024-01-30T05:41:17;9.45;;;3.47;;
74851;SDS011;63400;50.650;6.832;2024-01-30T05:43:43;9.50;;;3.03;;
74851;SDS011;63400;50.650;6.832;2024-01-30T05:46:08;7.10;;;3.35;;
74851;SDS011;63400;50.650;6.832;2024-01-30T05:48:34;9.57;;;3.28;;
74851;SDS011;63400;50.650;6.832;2024-01-30T05:51:00;8.85;;;2.92;;
74851;SDS011;63400;50.650;6.832;2024-01-30T05:53:26;9.13;;;3.25;;
74851;SDS011;63400;50.650;6.832;2024-01-30T05:55:52;8.75;;;3.60;;
74851;SDS011;63400;50.650;6.832;2024-01-30T05:58:17;9.50;;;3.70;;
74851;SDS011;63400;50.650;6.832;2024-01-30T06:00:43;10.50;;;3.50;;
74851;SDS011;63400;50.650;6.832;2024-01-30T06:03:08;8.00;;;3.15;;
74851;SDS011;63400;50.650;6.832;2024-01-30T06:05:33;10.38;;;3.20;;
74851;SDS011;63400;50.650;6.832;2024-01-30T06:07:59;11.13;;;4.10;;
74851;SDS011;63400;50.650;6.832;2024-01-30T06:10:24;11.43;;;4.18;;
74851;SDS011;63400;50.650;6.832;2024-01-30T06:12:50;9.32;;;2.95;;
74851;SDS011;63400;50.650;6.832;2024-01-30T06:15:15;11.15;;;4.43;;
74851;SDS011;63400;50.650;6.832;2024-01-30T06:17:41;9.82;;;3.80;;
74851;SDS011;63400;50.650;6.832;2024-01-30T06:20:06;11.90;;;4.60;;
74851;SDS011;63400;50.650;6.832;2024-01-30T06:22:32;10.32;;;3.63;;
74851;SDS011;63400;50.650;6.832;2024-01-30T06:24:57;9.52;;;3.70;;
74851;SDS011;63400;50.650;6.832;2024-01-30T06:27:23;7.10;;;3.40;;
74851;SDS011;63400;50.650;6.832;2024-01-30T06:29:48;11.27;;;4.18;;
74851;SDS011;63400;50.650;6.832;2024-01-30T06:32:14;8.23;;;3.80;;
74851;SDS011;63400;50.650;6.832;2024-01-30T06:34:40;9.25;;;3.63;;
74851;SDS011;63400;50.650;6.832;2024-01-30T06:37:06;9.13;;;3.38;;
74851;SDS011;63400;50.650;6.832;2024-01-30T06:39:31;9.43;;;3.92;;
74851;SDS011;63400;50.650;6.832;2024-01-30T06:41:56;9.75;;;4.10;;
74851;SDS011;63400;50.650;6.832;2024-01-30T06:44:22;15.90;;;6.30;;
74851;SDS011;63400;50.650;6.832;2024-01-30T06:46:47;8.68;;;3.33;;
74851;SDS011;63400;50.650;6.832;2024-01-30T06:49:13;8.85;;;3.22;;
74851;SDS011;63400;50.650;6.832;2024-01-30T06:51:38;8.10;;;2.83;;
74851;SDS011;63400;50.650;6.832;2024-01-30T06:54:04;9.35;;;3.28;;
74851;SDS011;63400;50.650;6.832;2024-01-30T06:56:29;9.70;;;3.45;;
74851;SDS011;63400;50.650;6.832;2024-01-30T06:58:55;10.95;;;3.13;;
74851;SDS011;63400;50.650;6.832;2024-01-30T07:01:27;7.72;;;3.00;;
74851;SDS011;63400;50.650;6.832;2024-01-30T07:03:53;8.27;;;2.75;;
74851;SDS011;63400;50.650;6.832;2024-01-30T07:06:18;7.30;;;3.10;;
74851;SDS011;63400;50.650;6.832;2024-01-30T07:08:43;11.07;;;3.00;;
74851;SDS011;63400;50.650;6.832;2024-01-30T07:11:09;8.02;;;3.13;;
74851;SDS011;63400;50.650;6.832;2024-01-30T07:13:34;6.78;;;2.80;;
74851;SDS011;63400;50.650;6.832;2024-01-30T07:16:00;9.07;;;3.15;;
74851;SDS011;63400;50.650;6.832;2024-01-30T07:18:25;6.95;;;2.90;;
74851;SDS011;63400;50.650;6.832;2024-01-30T07:20:51;7.25;;;3.30;;
74851;SDS011;63400;50.650;6.832;2024-01-30T07:23:16;6.78;;;2.85;;
74851;SDS011;63400;50.650;6.832;2024-01-30T07:25:46;6.55;;;2.65;;
74851;SDS011;63400;50.650;6.832;2024-01-30T07:28:13;9.93;;;2.50;;
74851;SDS011;63400;50.650;6.832;2024-01-30T07:30:41;8.88;;;2.95;;
74851;SDS011;63400;50.650;6.832;2024-01-30T07:33:07;9.20;;;2.88;;
74851;SDS011;63400;50.650;6.832;2024-01-30T07:35:35;6.93;;;2.45;;
74851;SDS011;63400;50.650;6.832;2024-01-30T07:38:01;7.88;;;2.30;;
74851;SDS011;63400;50.650;6.832;2024-01-30T07:40:27;8.95;;;2.55;;
74851;SDS011;63400;50.650;6.832;2024-01-30T07:42:55;8.30;;;2.97;;
74851;SDS011;63400;50.650;6.832;2024-01-30T07:45:20;5.60;;;2.70;;
74851;SDS011;63400;50.650;6.832;2024-01-30T07:47:53;6.57;;;2.30;;
74851;SDS011;63400;50.650;6.832;2024-01-30T07:50:19;6.35;;;2.40;;
74851;SDS011;63400;50.650;6.832;2024-01-30T07:52:44;7.82;;;2.40;;
74851;SDS011;63400;50.650;6.832;2024-01-30T07:55:10;9.95;;;3.03;;
74851;SDS011;63400;50.650;6.832;2024-01-30T07:57:35;9.85;;;2.80;;
74851;SDS011;63400;50.650;6.832;2024-01-30T08:00:01;8.98;;;2.78;;
74851;SDS011;63400;50.650;6.832;2024-01-30T08:02:28;8.93;;;3.03;;
74851;SDS011;63400;50.650;6.832;2024-01-30T08:04:53;9.07;;;3.45;;
74851;SDS011;63400;50.650;6.832;2024-01-30T08:07:19;13.27;;;3.63;;
74851;SDS011;63400;50.650;6.832;2024-01-30T08:09:46;7.43;;;3.15;;
74851;SDS011;63400;50.650;6.832;2024-01-30T08:12:11;6.38;;;2.30;;
74851;SDS011;63400;50.650;6.832;2024-01-30T08:14:37;7.78;;;2.67;;
74851;SDS011;63400;50.650;6.832;2024-01-30T08:17:03;7.15;;;2.92;;
74851;SDS011;63400;50.650;6.832;2024-01-30T08:19:29;9.23;;;3.10;;
74851;SDS011;63400;50.650;6.832;2024-01-30T08:21:54;8.73;;;3.22;;
74851;SDS011;63400;50.650;6.832;2024-01-30T08:24:20;8.73;;;2.90;;
74851;SDS011;63400;50.650;6.832;2024-01-30T08:26:46;7.65;;;2.72;;
74851;SDS011;63400;50.650;6.832;2024-01-30T08:29:12;8.30;;;2.65;;
74851;SDS011;63400;50.650;6.832;2024-01-30T08:31:37;7.20;;;2.60;;
74851;SDS011;63400;50.650;6.832;2024-01-30T08:34:03;7.93;;;3.22;;
74851;SDS011;63400;50.650;6.832;2024-01-30T08:36:28;8.18;;;3.00;;
74851;SDS011;63400;50.650;6.832;2024-01-30T08:38:53;8.65;;;2.72;;
74851;SDS011;63400;50.650;6.832;2024-01-30T08:41:19;7.68;;;2.80;;
74851;SDS011;63400;50.650;6.832;2024-01-30T08:43:44;8.90;;;2.83;;
74851;SDS011;63400;50.650;6.832;2024-01-30T08:46:10;8.15;;;2.83;;
74851;SDS011;63400;50.650;6.832;2024-01-30T08:48:36;7.00;;;2.78;;
74851;SDS011;63400;50.650;6.832;2024-01-30T08:51:01;8.70;;;2.97;;
74851;SDS011;63400;50.650;6.832;2024-01-30T08:53:27;9.38;;;3.10;;
74851;SDS011;63400;50.650;6.832;2024-01-30T08:55:52;9.38;;;3.22;;
74851;SDS011;63400;50.650;6.832;2024-01-30T08:58:18;8.40;;;2.78;;
74851;SDS011;63400;50.650;6.832;2024-01-30T09:00:44;8.68;;;3.17;;
74851;SDS011;63400;50.650;6.832;2024-01-30T09:03:09;7.57;;;3.00;;
74851;SDS011;63400;50.650;6.832;2024-01-30T09:05:35;6.93;;;2.58;;
74851;SDS011;63400;50.650;6.832;2024-01-30T09:08:00;6.78;;;2.67;;
74851;SDS011;63400;50.650;6.832;2024-01-30T09:10:26;9.25;;;2.67;;
74851;SDS011;63400;50.650;6.832;2024-01-30T09:12:51;6.32;;;2.78;;
74851;SDS011;63400;50.650;6.832;2024-01-30T09:15:17;8.20;;;2.88;;
74851;SDS011;63400;50.650;6.832;2024-01-30T09:17:44;7.88;;;2.83;;
74851;SDS011;63400;50.650;6.832;2024-01-30T09:20:09;5.55;;;2.38;;
74851;SDS011;63400;50.650;6.832;2024-01-30T09:22:35;7.03;;;2.28;;
74851;SDS011;63400;50.650;6.832;2024-01-30T09:25:00;7.70;;;2.47;;
74851;SDS011;63400;50.650;6.832;2024-01-30T09:27:26;6.68;;;2.33;;
74851;SDS011;63400;50.650;6.832;2024-01-30T09:29:51;7.13;;;2.50;;
74851;SDS011;63400;50.650;6.832;2024-01-30T09:32:16;6.50;;;1.90;;
74851;SDS011;63400;50.650;6.832;2024-01-30T09:34:42;4.80;;;1.77;;
74851;SDS011;63400;50.650;6.832;2024-01-30T09:37:08;6.20;;;1.85;;
74851;SDS011;63400;50.650;6.832;2024-01-30T09:39:33;4.78;;;2.20;;
74851;SDS011;63400;50.650;6.832;2024-01-30T09:44:31;6.07;;;1.95;;
74851;SDS011;63400;50.650;6.832;2024-01-30T09:47:00;4.93;;;1.77;;
74851;SDS011;63400;50.650;6.832;2024-01-30T09:49:31;9.73;;;2.83;;
74851;SDS011;63400;50.650;6.832;2024-01-30T09:51:58;7.45;;;2.70;;
74851;SDS011;63400;50.650;6.832;2024-01-30T09:54:23;5.40;;;2.05;;
74851;SDS011;63400;50.650;6.832;2024-01-30T09:56:49;6.45;;;2.25;;
74851;SDS011;63400;50.650;6.832;2024-01-30T09:59:14;6.25;;;1.77;;
74851;SDS011;63400;50.650;6.832;2024-01-30T10:01:41;5.32;;;2.08;;
74851;SDS011;63400;50.650;6.832;2024-01-30T10:04:07;4.53;;;1.83;;
74851;SDS011;63400;50.650;6.832;2024-01-30T10:06:33;6.82;;;2.97;;
74851;SDS011;63400;50.650;6.832;2024-01-30T10:08:59;5.55;;;2.75;;
74851;SDS011;63400;50.650;6.832;2024-01-30T10:11:24;7.30;;;2.67;;
74851;SDS011;63400;50.650;6.832;2024-01-30T10:13:50;5.05;;;2.40;;
74851;SDS011;63400;50.650;6.832;2024-01-30T10:16:15;6.38;;;2.00;;
74851;SDS011;63400;50.650;6.832;2024-01-30T10:18:50;4.72;;;2.25;;
74851;SDS011;63400;50.650;6.832;2024-01-30T10:21:15;5.25;;;2.03;;
74851;SDS011;63400;50.650;6.832;2024-01-30T10:23:41;5.60;;;1.75;;
74851;SDS011;63400;50.650;6.832;2024-01-30T10:26:09;5.80;;;2.22;;
74851;SDS011;63400;50.650;6.832;2024-01-30T10:28:35;5.90;;;2.05;;
74851;SDS011;63400;50.650;6.832;2024-01-30T10:31:00;4.75;;;1.83;;
74851;SDS011;63400;50.650;6.832;2024-01-30T10:33:29;6.85;;;2.40;;
74851;SDS011;63400;50.650;6.832;2024-01-30T10:36:00;6.78;;;2.42;;
74851;SDS011;63400;50.650;6.832;2024-01-30T10:38:31;4.60;;;1.83;;
74851;SDS011;63400;50.650;6.832;2024-01-30T10:40:57;6.22;;;2.22;;
74851;SDS011;63400;50.650;6.832;2024-01-30T10:43:26;7.75;;;2.13;;
74851;SDS011;63400;50.650;6.832;2024-01-30T10:45:57;7.47;;;2.00;;
74851;SDS011;63400;50.650;6.832;2024-01-30T10:48:56;10.20;;;2.33;;
74851;SDS011;63400;50.650;6.832;2024-01-30T10:51:23;6.57;;;2.63;;
74851;SDS011;63400;50.650;6.832;2024-01-30T10:56:16;5.30;;;2.13;;
74851;SDS011;63400;50.650;6.832;2024-01-30T10:58:43;3.65;;;1.75;;
74851;SDS011;63400;50.650;6.832;2024-01-30T11:01:08;9.70;;;2.05;;
74851;SDS011;63400;50.650;6.832;2024-01-30T11:03:34;6.55;;;2.03;;
74851;SDS011;63400;50.650;6.832;2024-01-30T11:06:01;4.95;;;1.50;;
74851;SDS011;63400;50.650;6.832;2024-01-30T11:08:27;5.10;;;1.95;;
74851;SDS011;63400;50.650;6.832;2024-01-30T11:10:56;5.07;;;2.72;;
74851;SDS011;63400;50.650;6.832;2024-01-30T11:13:28;5.32;;;1.70;;
74851;SDS011;63400;50.650;6.832;2024-01-30T11:15:54;5.97;;;2.25;;
74851;SDS011;63400;50.650;6.832;2024-01-30T11:18:23;6.30;;;1.83;;
74851;SDS011;63400;50.650;6.832;2024-01-30T11:20:51;6.28;;;1.90;;
74851;SDS011;63400;50.650;6.832;2024-01-30T11:23:17;5.95;;;1.75;;
74851;SDS011;63400;50.650;6.832;2024-01-30T11:25:46;4.93;;;1.98;;
74851;SDS011;63400;50.650;6.832;2024-01-30T11:28:15;4.65;;;1.65;;
74851;SDS011;63400;50.650;6.832;2024-01-30T11:30:42;4.97;;;1.30;;
74851;SDS011;63400;50.650;6.832;2024-01-30T11:33:11;5.38;;;1.58;;
74851;SDS011;63400;50.650;6.832;2024-01-30T11:35:41;6.65;;;2.10;;
74851;SDS011;63400;50.650;6.832;2024-01-30T11:38:08;5.60;;;2.00;;
74851;SDS011;63400;50.650;6.832;2024-01-30T11:40:35;7.65;;;2.35;;
74851;SDS011;63400;50.650;6.832;2024-01-30T11:43:02;4.95;;;2.08;;
74851;SDS011;63400;50.650;6.832;2024-01-30T11:45:30;6.53;;;1.90;;
74851;SDS011;63400;50.650;6.832;2024-01-30T11:47:56;5.65;;;2.00;;
74851;SDS011;63400;50.650;6.832;2024-01-30T11:50:22;4.90;;;1.98;;
74851;SDS011;63400;50.650;6.832;2024-01-30T11:52:49;4.93;;;2.05;;
74851;SDS011;63400;50.650;6.832;2024-01-30T11:55:15;5.28;;;1.75;;
74851;SDS011;63400;50.650;6.832;2024-01-30T11:57:41;6.68;;;1.95;;
74851;SDS011;63400;50.650;6.832;2024-01-30T12:00:13;6.43;;;2.25;;
74851;SDS011;63400;50.650;6.832;2024-01-30T12:02:40;3.55;;;1.52;;
74851;SDS011;63400;50.650;6.832;2024-01-30T12:05:06;6.68;;;2.30;;
74851;SDS011;63400;50.650;6.832;2024-01-30T12:07:32;6.38;;;2.42;;
74851;SDS011;63400;50.650;6.832;2024-01-30T12:09:58;6.20;;;2.28;;
74851;SDS011;63400;50.650;6.832;2024-01-30T12:12:24;7.85;;;2.72;;
74851;SDS011;63400;50.650;6.832;2024-01-30T12:14:50;6.90;;;2.60;;
74851;SDS011;63400;50.650;6.832;2024-01-30T12:17:23;4.47;;;2.33;;
74851;SDS011;63400;50.650;6.832;2024-01-30T12:20:09;8.05;;;3.38;;
74851;SDS011;63400;50.650;6.832;2024-01-30T12:22:43;6.45;;;2.78;;
74851;SDS011;63400;50.650;6.832;2024-01-30T12:25:09;6.15;;;2.10;;
74851;SDS011;63400;50.650;6.832;2024-01-30T12:27:35;6.13;;;2.30;;
74851;SDS011;63400;50.650;6.832;2024-01-30T12:30:10;7.63;;;2.35;;
74851;SDS011;63400;50.650;6.832;2024-01-30T12:32:36;4.25;;;1.67;;
74851;SDS011;63400;50.650;6.832;2024-01-30T12:35:07;5.70;;;2.00;;
74851;SDS011;63400;50.650;6.832;2024-01-30T12:37:36;7.10;;;2.28;;
74851;SDS011;63400;50.650;6.832;2024-01-30T12:40:03;8.95;;;3.20;;
74851;SDS011;63400;50.650;6.832;2024-01-30T12:42:29;8.35;;;3.35;;
74851;SDS011;63400;50.650;6.832;2024-01-30T12:44:56;6.85;;;2.40;;
74851;SDS011;63400;50.650;6.832;2024-01-30T12:47:22;7.03;;;2.10;;
74851;SDS011;63400;50.650;6.832;2024-01-30T12:49:48;3.28;;;1.60;;
74851;SDS011;63400;50.650;6.832;2024-01-30T12:52:16;9.85;;;3.45;;
74851;SDS011;63400;50.650;6.832;2024-01-30T12:54:42;8.50;;;3.15;;
74851;SDS011;63400;50.650;6.832;2024-01-30T12:57:07;7.00;;;2.92;;
74851;SDS011;63400;50.650;6.832;2024-01-30T12:59:33;8.27;;;3.25;;
74851;SDS011;63400;50.650;6.832;2024-01-30T13:01:59;6.53;;;3.08;;
74851;SDS011;63400;50.650;6.832;2024-01-30T13:04:26;9.38;;;3.63;;
74851;SDS011;63400;50.650;6.832;2024-01-30T13:06:53;7.97;;;3.47;;
74851;SDS011;63400;50.650;6.832;2024-01-30T13:09:18;7.68;;;3.10;;
74851;SDS011;63400;50.650;6.832;2024-01-30T13:11:44;9.80;;;3.03;;
74851;SDS011;63400;50.650;6.832;2024-01-30T13:14:10;8.68;;;2.63;;
74851;SDS011;63400;50.650;6.832;2024-01-30T13:16:35;7.18;;;2.85;;
74851;SDS011;63400;50.650;6.832;2024-01-30T13:19:01;5.65;;;2.50;;
74851;SDS011;63400;50.650;6.832;2024-01-30T13:21:27;6.13;;;2.28;;
74851;SDS011;63400;50.650;6.832;2024-01-30T13:23:53;8.32;;;2.63;;
74851;SDS011;63400;50.650;6.832;2024-01-30T13:26:19;5.63;;;1.65;;
74851;SDS011;63400;50.650;6.832;2024-01-30T13:28:45;5.90;;;1.98;;
74851;SDS011;63400;50.650;6.832;2024-01-30T13:31:10;7.32;;;2.08;;
74851;SDS011;63400;50.650;6.832;2024-01-30T13:33:36;6.70;;;1.98;;
74851;SDS011;63400;50.650;6.832;2024-01-30T13:36:02;5.18;;;1.60;;
74851;SDS011;63400;50.650;6.832;2024-01-30T13:38:27;7.97;;;2.42;;
74851;SDS011;63400;50.650;6.832;2024-01-30T13:40:53;5.90;;;2.40;;
74851;SDS011;63400;50.650;6.832;2024-01-30T13:43:18;8.25;;;1.90;;
74851;SDS011;63400;50.650;6.832;2024-01-30T13:45:43;5.50;;;1.83;;
74851;SDS011;63400;50.650;6.832;2024-01-30T13:48:09;6.18;;;2.28;;
74851;SDS011;63400;50.650;6.832;2024-01-30T13:50:34;6.93;;;2.65;;
74851;SDS011;63400;50.650;6.832;2024-01-30T13:53:01;5.93;;;2.50;;
74851;SDS011;63400;50.650;6.832;2024-01-30T13:57:53;9.80;;;2.93;;
74851;SDS011;63400;50.650;6.832;2024-01-30T14:00:18;9.13;;;2.20;;
74851;SDS011;63400;50.650;6.832;2024-01-30T14:02:45;5.70;;;2.03;;
74851;SDS011;63400;50.650;6.832;2024-01-30T14:05:10;5.00;;;1.92;;
74851;SDS011;63400;50.650;6.832;2024-01-30T14:07:36;5.95;;;2.35;;
74851;SDS011;63400;50.650;6.832;2024-01-30T14:10:04;6.95;;;2.38;;
74851;SDS011;63400;50.650;6.832;2024-01-30T14:12:29;10.75;;;2.05;;
74851;SDS011;63400;50.650;6.832;2024-01-30T14:14:55;5.43;;;2.72;;
74851;SDS011;63400;50.650;6.832;2024-01-30T14:17:20;7.18;;;1.75;;
74851;SDS011;63400;50.650;6.832;2024-01-30T14:19:46;7.68;;;2.88;;
74851;SDS011;63400;50.650;6.832;2024-01-30T14:22:11;6.90;;;2.53;;
74851;SDS011;63400;50.650;6.832;2024-01-30T14:24:37;7.32;;;2.88;;
74851;SDS011;63400;50.650;6.832;2024-01-30T14:27:02;5.88;;;2.58;;
74851;SDS011;63400;50.650;6.832;2024-01-30T14:29:28;4.75;;;1.98;;
74851;SDS011;63400;50.650;6.832;2024-01-30T14:31:53;6.50;;;1.83;;
74851;SDS011;63400;50.650;6.832;2024-01-30T14:34:20;4.95;;;1.95;;
74851;SDS011;63400;50.650;6.832;2024-01-30T14:36:45;4.38;;;1.58;;
74851;SDS011;63400;50.650;6.832;2024-01-30T14:39:11;5.57;;;1.33;;
74851;SDS011;63400;50.650;6.832;2024-01-30T14:41:36;5.40;;;1.77;;
74851;SDS011;63400;50.650;6.832;2024-01-30T14:44:02;6.25;;;2.05;;
74851;SDS011;63400;50.650;6.832;2024-01-30T14:46:28;5.13;;;1.92;;
74851;SDS011;63400;50.650;6.832;2024-01-30T14:48:53;5.72;;;1.63;;